createdAt,value
2022-09-06T00:03:33.809Z,1.00
2022-09-06T00:07:41.760Z,0.90
2022-09-06T00:10:49.212Z,0.90
2022-09-06T00:14:57.170Z,0.90
2022-09-06T00:19:05.119Z,0.80
2022-09-06T00:23:10.130Z,1.20
2022-09-06T00:26:11.366Z,1.10
2022-09-06T00:29:06.382Z,1.00
2022-09-06T00:32:30.312Z,0.90
2022-09-06T00:35:24.557Z,1.00
2022-09-06T00:38:03.051Z,0.90
2022-09-06T00:40:51.004Z,0.80
2022-09-06T00:43:38.855Z,1.00
2022-09-06T00:46:08.433Z,1.10
2022-09-06T00:49:19.792Z,1.00
2022-09-06T00:52:05.937Z,0.90
2022-09-06T00:55:26.315Z,0.80
2022-09-06T00:59:08.346Z,0.90
2022-09-06T01:02:03.687Z,1.10
2022-09-06T01:06:20.580Z,1.20
2022-09-06T01:10:43.876Z,0.90
2022-09-06T01:14:31.768Z,1.10
2022-09-06T01:17:45.682Z,1.20
2022-09-06T01:20:59.065Z,1.20
2022-09-06T01:24:28.855Z,1.00
2022-09-06T01:27:48.494Z,1.10
2022-09-06T01:30:42.151Z,1.10
2022-09-06T01:33:56.385Z,1.30
2022-09-06T01:37:10.063Z,1.00
2022-09-06T01:40:08.388Z,1.40
2022-09-06T01:42:37.936Z,1.30
2022-09-06T01:45:45.446Z,1.20
2022-09-06T01:49:50.377Z,0.90
2022-09-06T01:53:18.070Z,1.30
2022-09-06T01:56:46.465Z,1.20
2022-09-06T01:59:39.739Z,1.30
2022-09-06T02:02:16.505Z,1.20
2022-09-06T02:04:56.240Z,1.00
2022-09-06T02:07:28.012Z,1.20
2022-09-06T02:10:10.669Z,1.00
2022-09-06T02:13:04.880Z,1.30
2022-09-06T02:15:54.028Z,1.10
2022-09-06T02:19:10.557Z,1.20
2022-09-06T02:22:09.277Z,1.30
2022-09-06T02:24:42.479Z,1.10
2022-09-06T02:27:09.582Z,1.10
2022-09-06T02:29:36.550Z,1.00
2022-09-06T02:32:07.470Z,1.10
2022-09-06T02:35:14.773Z,1.30
2022-09-06T02:37:43.887Z,1.00
2022-09-06T02:40:16.651Z,1.10
2022-09-06T02:43:15.153Z,1.20
2022-09-06T02:46:12.676Z,1.00
2022-09-06T02:49:02.959Z,1.10
2022-09-06T02:52:50.725Z,1.20
2022-09-06T02:55:48.893Z,1.00
2022-09-06T02:58:50.445Z,1.20
2022-09-06T03:01:19.722Z,1.10
2022-09-06T03:03:50.277Z,1.10
2022-09-06T03:06:20.314Z,1.60
2022-09-06T03:09:58.355Z,1.10
2022-09-06T03:13:39.541Z,1.20
2022-09-06T03:17:07.047Z,1.10
2022-09-06T03:21:14.997Z,1.10
2022-09-06T03:24:52.748Z,1.10
2022-09-06T03:28:06.207Z,1.50
2022-09-06T03:31:00.219Z,1.10
2022-09-06T03:34:10.902Z,1.30
2022-09-06T03:38:10.174Z,1.10
2022-09-06T03:41:38.318Z,1.40
2022-09-06T03:44:53.618Z,1.10
2022-09-06T03:48:51.432Z,1.10
2022-09-06T03:52:27.693Z,1.10
2022-09-06T03:56:17.293Z,1.20
2022-09-06T03:59:45.228Z,1.10
2022-09-06T04:03:24.935Z,1.10
2022-09-06T04:07:17.795Z,1.30
2022-09-06T04:10:32.320Z,1.10
2022-09-06T04:13:37.699Z,1.20
2022-09-06T04:16:48.590Z,1.20
2022-09-06T04:20:10.323Z,1.10
2022-09-06T04:23:26.549Z,1.30
2022-09-06T04:26:03.733Z,1.10
2022-09-06T04:28:31.266Z,1.10
2022-09-06T04:31:29.129Z,1.40
2022-09-06T04:35:19.737Z,1.10
2022-09-06T04:38:49.939Z,1.30
2022-09-06T04:41:24.577Z,1.10
2022-09-06T04:44:03.095Z,1.20
2022-09-06T04:47:30.634Z,1.30
2022-09-06T04:51:01.508Z,1.20
2022-09-06T04:55:09.445Z,1.20
2022-09-06T04:58:02.390Z,1.30
2022-09-06T05:00:55.204Z,1.10
2022-09-06T05:04:43.198Z,1.10
2022-09-06T05:08:26.643Z,1.10
2022-09-06T05:11:31.859Z,1.30
2022-09-06T05:14:37.717Z,1.50
2022-09-06T05:18:16.150Z,0.90
2022-09-06T05:21:26.898Z,1.10
2022-09-06T05:24:30.435Z,1.10
2022-09-06T05:27:29.709Z,1.10
2022-09-06T05:29:59.444Z,1.20
2022-09-06T05:32:29.800Z,1.10
2022-09-06T05:35:06.866Z,1.10
2022-09-06T05:37:54.858Z,1.00
2022-09-06T05:43:26.051Z,1.50
2022-09-06T05:46:02.252Z,1.00
2022-09-06T05:48:37.249Z,1.10
2022-09-06T05:51:38.611Z,1.10
2022-09-06T05:54:33.598Z,1.00
2022-09-06T05:57:21.464Z,0.90
2022-09-06T05:59:55.022Z,1.10
2022-09-06T06:02:26.244Z,1.10
2022-09-06T06:04:58.850Z,1.10
2022-09-06T06:07:25.841Z,1.10
2022-09-06T06:09:52.649Z,1.00
2022-09-06T06:12:19.386Z,0.90
2022-09-06T06:14:48.383Z,0.90
2022-09-06T06:17:16.424Z,1.10
2022-09-06T06:19:43.265Z,1.20
2022-09-06T06:22:10.225Z,1.10
2022-09-06T06:24:37.380Z,0.80
2022-09-06T06:27:04.561Z,1.10
2022-09-06T06:29:40.588Z,0.90
2022-09-06T06:32:07.413Z,0.90
2022-09-06T06:34:37.478Z,1.00
2022-09-06T06:37:04.726Z,0.90
2022-09-06T06:39:37.104Z,0.90
2022-09-06T06:42:04.341Z,1.00
2022-09-06T06:44:37.556Z,0.90
2022-09-06T06:47:04.961Z,1.10
2022-09-06T06:49:32.543Z,1.10
2022-09-06T06:52:04.908Z,0.80
2022-09-06T06:55:24.085Z,1.10
2022-09-06T06:57:51.532Z,1.10
2022-09-06T07:00:18.326Z,1.00
2022-09-06T07:02:45.383Z,1.00
2022-09-06T07:06:13.322Z,1.10
2022-09-06T07:12:56.403Z,1.10
2022-09-06T07:15:23.420Z,1.30
2022-09-06T07:17:50.860Z,0.90
2022-09-06T07:20:18.012Z,1.00
2022-09-06T07:25:44.718Z,0.90
2022-09-06T07:28:14.319Z,1.00
2022-09-06T07:30:42.535Z,1.00
2022-09-06T07:33:09.502Z,1.00
2022-09-06T07:35:36.278Z,1.30
2022-09-06T07:38:03.280Z,1.00
2022-09-06T07:40:31.377Z,1.00
2022-09-06T07:43:01.314Z,0.90
2022-09-06T07:45:28.239Z,1.00
2022-09-06T07:47:59.083Z,0.90
2022-09-06T07:50:49.103Z,1.20
2022-09-06T07:53:27.726Z,1.10
2022-09-06T07:55:58.237Z,0.90
2022-09-06T07:58:25.166Z,1.00
2022-09-06T08:00:52.161Z,0.90
2022-09-06T08:03:19.273Z,1.20
2022-09-06T08:11:25.897Z,1.00
2022-09-06T08:14:13.998Z,1.10
2022-09-06T08:16:53.281Z,1.10
2022-09-06T08:20:03.710Z,1.00
2022-09-06T08:23:20.532Z,1.00
2022-09-06T08:26:42.456Z,1.00
2022-09-06T08:29:10.972Z,1.60
2022-09-06T08:31:40.552Z,1.40
2022-09-06T08:34:07.658Z,1.40
2022-09-06T08:36:35.116Z,1.10
2022-09-06T08:39:04.979Z,1.10
2022-09-06T08:41:49.203Z,1.10
2022-09-06T08:47:17.800Z,1.10
2022-09-06T08:49:54.781Z,1.20
2022-09-06T08:53:13.631Z,1.10
2022-09-06T08:55:44.111Z,1.40
2022-09-06T08:58:26.255Z,1.40
2022-09-06T09:01:05.700Z,1.30
2022-09-06T09:03:38.762Z,1.40
2022-09-06T09:06:10.094Z,1.20
2022-09-06T09:08:59.438Z,1.20
2022-09-06T09:11:43.213Z,1.30
2022-09-06T09:14:21.224Z,1.40
2022-09-06T09:16:53.264Z,1.40
2022-09-06T09:19:20.090Z,1.20
2022-09-06T09:21:47.861Z,1.30
2022-09-06T09:24:15.939Z,1.40
2022-09-06T09:27:02.500Z,1.50
2022-09-06T09:29:34.411Z,1.30
2022-09-06T09:32:06.225Z,1.50
2022-09-06T09:34:40.459Z,1.30
2022-09-06T09:40:05.297Z,1.40
2022-09-06T09:42:37.214Z,1.70
2022-09-06T09:45:26.149Z,1.70
2022-09-06T09:47:53.438Z,1.60
2022-09-06T09:50:32.828Z,1.50
2022-09-06T09:53:14.949Z,2.40
2022-09-06T09:55:44.121Z,1.50
2022-09-06T09:58:44.587Z,1.80
2022-09-06T10:01:22.819Z,1.60
2022-09-06T10:04:43.215Z,1.70
2022-09-06T10:08:05.939Z,1.60
2022-09-06T10:10:43.355Z,1.60
2022-09-06T10:13:16.540Z,1.20
2022-09-06T10:15:43.972Z,1.70
2022-09-06T10:22:29.951Z,1.50
2022-09-06T10:25:06.390Z,1.80
2022-09-06T10:27:33.319Z,2.00
2022-09-06T10:30:07.212Z,2.00
2022-09-06T10:33:00.368Z,1.40
2022-09-06T10:35:32.306Z,2.10
2022-09-06T10:38:33.276Z,1.70
2022-09-06T10:41:25.117Z,1.60
2022-09-06T10:44:08.421Z,1.70
2022-09-06T10:46:36.968Z,1.80
2022-09-06T10:49:03.933Z,1.90
2022-09-06T10:51:38.774Z,1.90
2022-09-06T10:54:15.008Z,1.70
2022-09-06T10:56:53.387Z,1.80
2022-09-06T10:59:39.044Z,1.90
2022-09-06T11:02:32.652Z,1.50
2022-09-06T11:10:51.109Z,1.40
2022-09-06T11:13:25.714Z,1.50
2022-09-06T11:16:34.345Z,1.40
2022-09-06T11:19:17.661Z,2.00
2022-09-06T11:22:07.504Z,1.50
2022-09-06T11:24:37.201Z,1.20
2022-09-06T11:27:17.089Z,1.60
2022-09-06T11:29:47.921Z,1.70
2022-09-06T11:32:33.180Z,1.50
2022-09-06T11:35:03.189Z,1.30
2022-09-06T11:37:34.849Z,1.60
2022-09-06T11:42:51.441Z,1.60
2022-09-06T11:45:38.320Z,1.80
2022-09-06T11:49:00.094Z,1.50
2022-09-06T11:51:37.561Z,1.50
2022-09-06T11:54:10.534Z,1.50
2022-09-06T11:56:49.607Z,1.40
2022-09-06T11:59:16.610Z,1.30
2022-09-06T12:02:00.222Z,1.50
2022-09-06T12:05:00.427Z,1.60
2022-09-06T12:07:31.905Z,1.60
2022-09-06T12:10:02.603Z,1.70
2022-09-06T12:12:48.979Z,3.10
2022-09-06T12:15:31.942Z,1.90
2022-09-06T12:21:03.264Z,1.50
2022-09-06T12:23:36.018Z,1.50
2022-09-06T12:26:04.398Z,1.40
2022-09-06T12:28:42.218Z,1.70
2022-09-06T12:31:31.026Z,1.50
2022-09-06T12:33:58.974Z,1.40
2022-09-06T12:36:31.736Z,1.50
2022-09-06T12:39:17.809Z,1.60
2022-09-06T12:41:50.747Z,1.50
2022-09-06T12:44:53.234Z,2.00
2022-09-06T12:47:36.950Z,1.30
2022-09-06T12:50:14.964Z,1.30
2022-09-06T12:52:57.083Z,1.70
2022-09-06T12:55:27.709Z,1.50
2022-09-06T12:57:57.528Z,1.90
2022-09-06T13:00:28.459Z,1.60
2022-09-06T13:03:11.351Z,1.50
2022-09-06T13:05:40.657Z,1.90
2022-09-06T13:08:16.796Z,1.50
2022-09-06T13:10:47.640Z,1.60
2022-09-06T13:14:02.273Z,1.70
2022-09-06T13:16:41.777Z,1.50
2022-09-06T13:19:36.578Z,2.10
2022-09-06T13:22:11.195Z,1.60
2022-09-06T13:24:49.649Z,2.00
2022-09-06T13:27:27.070Z,1.80
2022-09-06T13:30:09.097Z,1.90
2022-09-06T13:32:45.275Z,2.40
2022-09-06T13:35:23.837Z,1.90
2022-09-06T13:38:10.909Z,1.70
2022-09-06T13:43:34.357Z,1.80
2022-09-06T13:46:09.658Z,1.40
2022-09-06T13:48:44.553Z,2.10
2022-09-06T13:51:11.897Z,1.70
2022-09-06T13:53:38.774Z,2.00
2022-09-06T13:56:08.717Z,2.20
2022-09-06T13:58:38.202Z,1.80
2022-09-06T14:01:08.797Z,2.10
2022-09-06T14:03:37.829Z,2.00
2022-09-06T14:06:04.750Z,1.70
2022-09-06T14:08:55.739Z,2.30
2022-09-06T14:11:19.520Z,2.00
2022-09-06T14:13:46.329Z,2.00
2022-09-06T14:16:13.417Z,1.90
2022-09-06T14:18:40.427Z,1.70
2022-09-06T14:21:10.340Z,1.70
2022-09-06T14:23:37.293Z,1.70
2022-09-06T14:26:05.378Z,2.20
2022-09-06T14:28:34.089Z,1.50
2022-09-06T14:31:29.238Z,1.70
2022-09-06T14:34:02.536Z,1.80
2022-09-06T14:36:31.604Z,1.60
2022-09-06T14:38:59.786Z,1.80
2022-09-06T14:41:27.367Z,2.00
2022-09-06T14:43:56.749Z,1.90
2022-09-06T14:46:25.243Z,2.20
2022-09-06T14:49:01.232Z,1.80
2022-09-06T14:51:29.811Z,1.70
2022-09-06T14:54:01.360Z,1.70
2022-09-06T14:56:28.293Z,1.90
2022-09-06T14:58:57.398Z,1.70
2022-09-06T15:01:37.891Z,1.80
2022-09-06T15:04:55.304Z,1.70
2022-09-06T15:07:25.389Z,1.70
2022-09-06T15:10:18.771Z,1.70
2022-09-06T15:12:51.586Z,1.80
2022-09-06T15:15:18.620Z,1.90
2022-09-06T15:17:54.355Z,1.70
2022-09-06T15:20:24.493Z,1.90
2022-09-06T15:23:03.847Z,2.00
2022-09-06T15:25:45.830Z,1.60
2022-09-06T15:28:12.969Z,1.70
2022-09-06T15:30:39.960Z,2.00
2022-09-06T15:33:07.799Z,1.90
2022-09-06T15:35:38.548Z,2.60
2022-09-06T15:38:05.458Z,2.20
2022-09-06T15:40:32.639Z,2.00
2022-09-06T15:43:14.176Z,1.80
2022-09-06T15:45:50.876Z,1.70
2022-09-06T15:48:18.046Z,1.70
2022-09-06T15:50:51.583Z,2.00
2022-09-06T15:53:20.101Z,2.20
2022-09-06T15:55:56.096Z,1.90
2022-09-06T15:58:25.067Z,1.60
2022-09-06T16:01:11.796Z,2.00
2022-09-06T16:03:47.122Z,2.00
2022-09-06T16:08:58.498Z,1.60
2022-09-06T16:11:26.264Z,1.60
2022-09-06T16:13:54.213Z,2.20
2022-09-06T16:16:22.615Z,1.70
2022-09-06T16:18:49.813Z,2.00
2022-09-06T16:21:24.242Z,1.60
2022-09-06T16:23:53.752Z,1.70
2022-09-06T16:26:25.771Z,1.70
2022-09-06T16:28:53.445Z,1.80
2022-09-06T16:31:24.052Z,2.00
2022-09-06T16:33:51.626Z,1.60
2022-09-06T16:36:19.205Z,1.40
2022-09-06T16:38:46.379Z,1.80
2022-09-06T16:41:19.420Z,1.50
2022-09-06T16:43:47.393Z,1.40
2022-09-06T16:46:14.957Z,1.30
2022-09-06T16:48:42.448Z,1.50
2022-09-06T16:51:13.613Z,1.90
2022-09-06T16:53:44.096Z,1.70
2022-09-06T16:56:13.308Z,1.50
2022-09-06T16:58:41.811Z,1.80
2022-09-06T17:01:11.773Z,1.50
2022-09-06T17:04:04.314Z,1.50
2022-09-06T17:06:33.184Z,1.70
2022-09-06T17:09:00.257Z,1.40
2022-09-06T17:11:28.580Z,1.80
2022-09-06T17:13:56.598Z,1.90
2022-09-06T17:16:42.983Z,1.40
2022-09-06T17:19:10.075Z,1.50
2022-09-06T17:22:33.205Z,1.80
2022-09-06T17:25:14.705Z,1.60
2022-09-06T17:27:52.739Z,1.80
2022-09-06T17:30:22.142Z,2.00
2022-09-06T17:33:05.856Z,2.20
2022-09-06T17:35:46.095Z,2.00
2022-09-06T17:38:24.933Z,1.90
2022-09-06T17:41:00.118Z,2.00
2022-09-06T17:44:09.956Z,2.30
2022-09-06T17:47:17.627Z,1.80
2022-09-06T17:49:55.537Z,6.40
2022-09-06T17:52:22.703Z,2.80
2022-09-06T17:55:02.135Z,3.00
2022-09-06T17:58:08.108Z,2.00
2022-09-06T18:00:43.410Z,1.70
2022-09-06T18:04:11.059Z,1.70
2022-09-06T18:06:46.320Z,1.60
2022-09-06T18:09:23.599Z,1.50
2022-09-06T18:11:50.657Z,1.40
2022-09-06T18:14:20.589Z,1.50
2022-09-06T18:16:50.721Z,1.50
2022-09-06T18:19:21.009Z,2.10
2022-09-06T18:21:49.008Z,1.50
2022-09-06T18:24:16.380Z,1.60
2022-09-06T18:26:44.766Z,1.40
2022-09-06T18:29:14.739Z,1.50
2022-09-06T18:31:44.840Z,1.90
2022-09-06T18:34:12.442Z,1.90
2022-09-06T18:36:42.533Z,2.40
2022-09-06T18:39:11.233Z,2.20
2022-09-06T18:42:40.169Z,2.20
2022-09-06T18:45:24.695Z,2.00
2022-09-06T18:48:43.545Z,2.10
2022-09-06T18:52:26.731Z,1.70
2022-09-06T18:55:36.684Z,2.90
2022-09-06T18:59:24.449Z,2.20
2022-09-06T19:03:01.658Z,1.50
2022-09-06T19:06:58.153Z,1.60
2022-09-06T19:10:45.279Z,1.50
2022-09-06T19:13:57.463Z,1.60
2022-09-06T19:17:55.303Z,1.40
2022-09-06T19:21:02.861Z,1.70
2022-09-06T19:23:56.784Z,1.80
2022-09-06T19:26:25.522Z,1.70
2022-09-06T19:28:58.465Z,1.80
2022-09-06T19:31:27.735Z,2.20
2022-09-06T19:33:55.834Z,2.40
2022-09-06T19:36:24.036Z,2.40
2022-09-06T19:39:04.187Z,2.10
2022-09-06T19:41:34.099Z,1.90
2022-09-06T19:44:01.650Z,1.90
2022-09-06T19:46:28.580Z,1.50
2022-09-06T19:48:56.384Z,4.00
2022-09-06T19:51:24.204Z,2.50
2022-09-06T19:53:53.413Z,2.40
2022-09-06T19:56:26.046Z,2.20
2022-09-06T19:58:55.319Z,2.10
2022-09-06T20:01:25.982Z,2.20
2022-09-06T20:04:07.015Z,2.50
2022-09-06T20:06:35.004Z,2.40
2022-09-06T20:09:03.980Z,2.40
2022-09-06T20:11:34.982Z,2.80
2022-09-06T20:14:02.269Z,2.50
2022-09-06T20:16:30.334Z,2.30
2022-09-06T20:18:59.004Z,2.30
2022-09-06T20:21:27.739Z,1.90
2022-09-06T20:23:56.564Z,1.80
2022-09-06T20:26:24.910Z,2.00
2022-09-06T20:29:01.629Z,3.50
2022-09-06T20:31:30.940Z,2.10
2022-09-06T20:34:05.040Z,2.40
2022-09-06T20:36:46.167Z,1.80
2022-09-06T20:39:23.294Z,1.80
2022-09-06T20:41:50.222Z,2.40
2022-09-06T20:44:17.149Z,2.10
2022-09-06T20:46:44.057Z,2.50
2022-09-06T20:49:14.953Z,2.30
2022-09-06T20:51:43.271Z,3.10
2022-09-06T20:54:11.408Z,3.10
2022-09-06T20:56:40.587Z,2.60
2022-09-06T20:59:14.908Z,2.50
2022-09-06T21:01:46.059Z,2.60
2022-09-06T21:04:15.778Z,2.20
2022-09-06T21:06:42.694Z,2.00
2022-09-06T21:09:11.546Z,1.90
2022-09-06T21:11:38.756Z,1.70
2022-09-06T21:14:09.300Z,2.10
2022-09-06T21:16:40.675Z,2.10
2022-09-06T21:19:10.122Z,2.40
2022-09-06T21:21:37.765Z,2.30
2022-09-06T21:24:06.680Z,1.90
2022-09-06T21:26:33.885Z,1.80
2022-09-06T21:29:03.916Z,1.80
2022-09-06T21:31:32.937Z,2.10
2022-09-06T21:34:03.224Z,2.00
2022-09-06T21:36:33.928Z,2.20
2022-09-06T21:39:10.775Z,2.20
2022-09-06T21:41:39.436Z,1.60
2022-09-06T21:44:07.632Z,1.90
2022-09-06T21:46:36.879Z,1.90
2022-09-06T21:49:07.352Z,1.80
2022-09-06T21:51:34.963Z,1.60
2022-09-06T21:54:05.938Z,1.70
2022-09-06T21:56:35.025Z,1.80
2022-09-06T21:59:02.487Z,1.80
2022-09-06T22:01:31.915Z,1.70
2022-09-06T22:04:00.094Z,1.50
2022-09-06T22:06:29.027Z,2.00
2022-09-06T22:09:00.993Z,2.00
2022-09-06T22:11:30.715Z,1.30
2022-09-06T22:14:00.042Z,1.50
2022-09-06T22:16:28.000Z,1.60
2022-09-06T22:18:55.172Z,1.60
2022-09-06T22:21:22.942Z,1.80
2022-09-06T22:23:56.189Z,1.60
2022-09-06T22:26:24.246Z,1.70
2022-09-06T22:28:59.182Z,1.30
2022-09-06T22:31:27.471Z,1.40
2022-09-06T22:33:55.221Z,1.30
2022-09-06T22:36:23.890Z,1.40
2022-09-06T22:38:57.456Z,1.60
2022-09-06T22:41:29.975Z,1.50
2022-09-06T22:44:06.080Z,1.70
2022-09-06T22:46:33.323Z,1.50
2022-09-06T22:49:00.651Z,1.20
2022-09-06T22:51:27.381Z,1.40
2022-09-06T22:53:54.279Z,1.40
2022-09-06T22:56:21.161Z,1.60
2022-09-06T22:58:47.933Z,1.50
2022-09-06T23:01:16.697Z,1.50
2022-09-06T23:03:44.600Z,1.40
2022-09-06T23:06:11.827Z,1.30
2022-09-06T23:08:40.168Z,1.20
2022-09-06T23:11:10.284Z,1.30
2022-09-06T23:13:37.826Z,1.50
2022-09-06T23:16:07.222Z,1.40
2022-09-06T23:18:34.563Z,1.40
2022-09-06T23:21:09.292Z,1.20
2022-09-06T23:23:38.246Z,1.40
2022-09-06T23:26:16.622Z,1.30
2022-09-06T23:28:44.593Z,1.30
2022-09-06T23:31:14.084Z,1.30
2022-09-06T23:33:41.813Z,1.40
2022-09-06T23:36:11.925Z,1.40
2022-09-06T23:38:40.262Z,1.60
2022-09-06T23:41:08.698Z,1.30
2022-09-06T23:43:35.405Z,1.60
2022-09-06T23:46:02.577Z,1.50
2022-09-06T23:48:29.745Z,1.30
2022-09-06T23:50:56.763Z,1.50
2022-09-06T23:53:23.744Z,1.40
2022-09-06T23:55:50.550Z,1.30
2022-09-06T23:58:17.415Z,1.60
